createdAt,value
2018-12-17T00:00:00.254Z,100416.00
2018-12-17T00:02:28.638Z,100407.00
2018-12-17T00:04:56.686Z,100402.00
2018-12-17T00:07:25.058Z,100398.00
2018-12-17T00:09:53.154Z,100411.00
2018-12-17T00:12:21.201Z,100412.00
2018-12-17T00:14:49.492Z,100409.00
2018-12-17T00:17:17.606Z,100409.00
2018-12-17T00:19:45.986Z,100414.00
2018-12-17T00:22:14.062Z,100410.00
2018-12-17T00:24:42.118Z,100405.00
2018-12-17T00:27:10.169Z,100412.00
2018-12-17T00:29:38.343Z,100420.00
2018-12-17T00:32:06.501Z,100407.00
2018-12-17T00:34:34.602Z,100407.00
2018-12-17T00:37:02.707Z,100416.00
2018-12-17T00:39:30.786Z,100421.00
2018-12-17T00:41:58.988Z,100421.00
2018-12-17T00:44:27.013Z,100419.00
2018-12-17T00:46:55.303Z,100419.00
2018-12-17T00:49:23.329Z,100420.00
2018-12-17T00:51:51.337Z,100422.00
2018-12-17T00:54:19.542Z,100431.00
2018-12-17T00:56:47.594Z,100441.00
2018-12-17T00:59:15.642Z,100428.00
2018-12-17T01:01:43.709Z,100425.00
2018-12-17T01:04:11.744Z,100428.00
2018-12-17T01:06:39.793Z,100425.00
2018-12-17T01:09:07.867Z,100435.00
2018-12-17T01:11:35.980Z,100431.00
2018-12-17T01:14:04.119Z,100423.00
2018-12-17T01:16:32.196Z,100430.00
2018-12-17T01:19:00.215Z,100425.00
2018-12-17T01:24:16.076Z,100442.00
2018-12-17T01:26:44.073Z,100438.00
2018-12-17T01:29:12.103Z,100448.00
2018-12-17T01:31:40.163Z,100449.00
2018-12-17T01:34:08.202Z,100450.00
2018-12-17T01:36:36.359Z,100463.00
2018-12-17T01:39:06.346Z,100454.00
2018-12-17T01:41:34.511Z,100448.00
2018-12-17T01:44:02.751Z,100453.00
2018-12-17T01:46:30.806Z,100467.00
2018-12-17T01:48:58.778Z,100466.00
2018-12-17T01:51:26.777Z,100464.00
2018-12-17T01:53:54.917Z,100465.00
2018-12-17T01:56:22.948Z,100462.00
2018-12-17T01:58:51.049Z,100464.00
2018-12-17T02:01:19.023Z,100466.00
2018-12-17T02:03:47.053Z,100466.00
2018-12-17T02:06:15.261Z,100460.00
2018-12-17T02:08:43.544Z,100462.00
2018-12-17T02:11:11.830Z,100461.00
2018-12-17T02:13:39.939Z,100464.00
2018-12-17T02:16:08.164Z,100461.00
2018-12-17T02:18:36.285Z,100460.00
2018-12-17T02:21:04.371Z,100464.00
2018-12-17T02:23:32.425Z,100468.00
2018-12-17T02:26:00.513Z,100462.00
2018-12-17T02:28:28.586Z,100460.00
2018-12-17T02:30:56.639Z,100452.00
2018-12-17T02:33:24.778Z,100458.00
2018-12-17T02:35:52.753Z,100455.00
2018-12-17T02:38:20.804Z,100464.00
2018-12-17T02:40:51.057Z,100461.00
2018-12-17T02:43:19.200Z,100461.00
2018-12-17T02:45:47.432Z,100464.00
2018-12-17T02:48:15.519Z,100471.00
2018-12-17T02:50:43.598Z,100467.00
2018-12-17T02:53:11.831Z,100469.00
2018-12-17T02:55:39.894Z,100478.00
2018-12-17T02:58:08.082Z,100477.00
2018-12-17T03:00:36.107Z,100476.00
2018-12-17T03:03:04.414Z,100475.00
2018-12-17T03:05:32.420Z,100487.00
2018-12-17T03:08:00.599Z,100487.00
2018-12-17T03:10:28.615Z,100489.00
2018-12-17T03:12:56.731Z,100485.00
2018-12-17T03:15:24.862Z,100488.00
2018-12-17T03:17:52.938Z,100499.00
2018-12-17T03:20:21.050Z,100496.00
2018-12-17T03:22:49.156Z,100497.00
2018-12-17T03:25:17.165Z,100498.00
2018-12-17T03:27:45.159Z,100500.00
2018-12-17T03:30:13.195Z,100511.00
2018-12-17T03:32:41.300Z,100502.00
2018-12-17T03:35:09.598Z,100512.00
2018-12-17T03:37:37.648Z,100516.00
2018-12-17T03:40:06.703Z,100511.00
2018-12-17T03:42:34.852Z,100516.00
2018-12-17T03:45:03.163Z,100521.00
2018-12-17T03:47:31.187Z,100522.00
2018-12-17T03:49:59.294Z,100528.00
2018-12-17T03:52:27.398Z,100530.00
2018-12-17T03:54:55.522Z,100536.00
2018-12-17T03:57:23.771Z,100535.00
2018-12-17T03:59:51.846Z,100536.00
2018-12-17T04:02:19.864Z,100537.00
2018-12-17T04:04:48.464Z,100486.00
2018-12-17T04:07:16.607Z,100541.00
2018-12-17T04:09:45.067Z,100544.00
2018-12-17T04:12:13.174Z,100545.00
2018-12-17T04:14:41.663Z,100544.00
2018-12-17T04:17:09.725Z,100548.00
2018-12-17T04:19:37.786Z,100553.00
2018-12-17T04:22:05.787Z,100553.00
2018-12-17T04:24:33.809Z,100548.00
2018-12-17T04:27:01.868Z,100564.00
2018-12-17T04:29:29.991Z,100560.00
2018-12-17T04:31:57.961Z,100570.00
2018-12-17T04:34:26.063Z,100571.00
2018-12-17T04:36:54.125Z,100571.00
2018-12-17T04:39:22.157Z,100578.00
2018-12-17T04:41:50.242Z,100586.00
2018-12-17T04:44:18.647Z,100581.00
2018-12-17T04:46:46.684Z,100579.00
2018-12-17T04:49:14.797Z,100587.00
2018-12-17T04:51:42.894Z,100588.00
2018-12-17T04:54:11.172Z,100593.00
2018-12-17T04:56:39.274Z,100582.00
2018-12-17T04:59:14.375Z,100581.00
2018-12-17T05:01:37.731Z,100593.00
2018-12-17T05:04:05.886Z,100589.00
2018-12-17T05:06:33.866Z,100592.00
2018-12-17T05:09:02.351Z,100593.00
2018-12-17T05:11:30.370Z,100598.00
2018-12-17T05:13:58.334Z,100608.00
2018-12-17T05:16:26.532Z,100596.00
2018-12-17T05:18:54.529Z,100606.00
2018-12-17T05:21:22.946Z,100603.00
2018-12-17T05:23:50.897Z,100604.00
2018-12-17T05:26:19.089Z,100613.00
2018-12-17T05:28:47.217Z,100621.00
2018-12-17T05:31:15.390Z,100612.00
2018-12-17T05:33:43.678Z,100621.00
2018-12-17T05:36:12.411Z,100627.00
2018-12-17T05:38:40.486Z,100631.00
2018-12-17T05:41:08.608Z,100642.00
2018-12-17T05:43:38.507Z,100634.00
2018-12-17T05:46:07.362Z,100636.00
2018-12-17T05:48:36.948Z,100648.00
2018-12-17T05:51:05.116Z,100640.00
2018-12-17T05:53:33.249Z,100648.00
2018-12-17T05:56:02.532Z,100639.00
2018-12-17T05:58:30.823Z,100647.00
2018-12-17T06:01:06.986Z,100655.00
2018-12-17T06:03:36.121Z,100655.00
2018-12-17T06:06:04.422Z,100663.00
2018-12-17T06:08:32.537Z,100668.00
2018-12-17T06:11:01.282Z,100668.00
2018-12-17T06:13:29.437Z,100679.00
2018-12-17T06:15:57.500Z,100663.00
2018-12-17T06:18:25.493Z,100667.00
2018-12-17T06:20:53.851Z,100669.00
2018-12-17T06:23:22.069Z,100674.00
2018-12-17T06:25:50.152Z,100677.00
2018-12-17T06:28:18.177Z,100686.00
2018-12-17T06:30:46.219Z,100685.00
2018-12-17T06:33:15.801Z,100686.00
2018-12-17T06:35:44.028Z,100687.00
2018-12-17T06:38:12.054Z,100693.00
2018-12-17T06:40:40.074Z,100711.00
2018-12-17T06:43:08.133Z,100697.00
2018-12-17T06:45:36.202Z,100704.00
2018-12-17T06:48:04.931Z,100701.00
2018-12-17T06:50:33.250Z,100697.00
2018-12-17T06:53:01.314Z,100708.00
2018-12-17T06:55:29.385Z,100704.00
2018-12-17T06:57:57.939Z,100711.00
2018-12-17T07:00:26.281Z,100717.00
2018-12-17T07:02:54.459Z,100724.00
2018-12-17T07:05:22.482Z,100730.00
2018-12-17T07:07:50.595Z,100724.00
2018-12-17T07:10:18.668Z,100731.00
2018-12-17T07:12:46.801Z,100724.00
2018-12-17T07:15:14.973Z,100720.00
2018-12-17T07:17:43.016Z,100713.00
2018-12-17T07:20:11.836Z,100723.00
2018-12-17T07:22:40.005Z,100731.00
2018-12-17T07:25:08.158Z,100736.00
2018-12-17T07:27:36.220Z,100740.00
2018-12-17T07:30:05.327Z,100740.00
2018-12-17T07:32:33.397Z,100738.00
2018-12-17T07:35:01.482Z,100749.00
2018-12-17T07:37:30.049Z,100761.00
2018-12-17T07:39:58.227Z,100752.00
2018-12-17T07:42:26.309Z,100748.00
2018-12-17T07:44:54.465Z,100764.00
2018-12-17T07:47:22.534Z,100765.00
2018-12-17T07:49:50.618Z,100761.00
2018-12-17T07:52:18.663Z,100764.00
2018-12-17T07:54:46.878Z,100769.00
2018-12-17T07:57:15.028Z,100770.00
2018-12-17T07:59:43.218Z,100778.00
2018-12-17T08:02:11.605Z,100782.00
2018-12-17T08:04:39.750Z,100790.00
2018-12-17T08:07:07.863Z,100790.00
2018-12-17T08:09:36.513Z,100787.00
2018-12-17T08:12:04.749Z,100797.00
2018-12-17T08:14:32.918Z,100814.00
2018-12-17T08:17:01.453Z,100831.00
2018-12-17T08:19:29.740Z,100838.00
2018-12-17T08:21:57.961Z,100835.00
2018-12-17T08:24:25.982Z,100845.00
2018-12-17T08:26:54.152Z,100849.00
2018-12-17T08:29:22.306Z,100844.00
2018-12-17T08:31:50.428Z,100854.00
2018-12-17T08:34:18.874Z,100851.00
2018-12-17T08:36:46.993Z,100861.00
2018-12-17T08:39:15.148Z,100858.00
2018-12-17T08:41:43.383Z,100853.00
2018-12-17T08:44:11.690Z,100857.00
2018-12-17T08:46:39.796Z,100856.00
2018-12-17T08:49:07.884Z,100854.00
2018-12-17T08:51:36.185Z,100865.00
2018-12-17T08:54:04.388Z,100856.00
2018-12-17T08:56:32.539Z,100858.00
2018-12-17T08:59:00.668Z,100868.00
2018-12-17T09:01:28.733Z,100851.00
2018-12-17T09:03:56.853Z,100869.00
2018-12-17T09:06:25.009Z,100863.00
2018-12-17T09:08:53.134Z,100862.00
2018-12-17T09:11:21.213Z,100870.00
2018-12-17T09:13:49.407Z,100877.00
2018-12-17T09:16:17.500Z,100874.00
2018-12-17T09:18:45.670Z,100871.00
2018-12-17T09:21:13.995Z,100879.00
2018-12-17T09:23:42.253Z,100879.00
2018-12-17T09:26:10.334Z,100879.00
2018-12-17T09:28:38.680Z,100884.00
2018-12-17T09:31:06.785Z,100886.00
2018-12-17T09:33:35.183Z,100894.00
2018-12-17T09:36:03.306Z,100887.00
2018-12-17T09:38:31.476Z,100887.00
2018-12-17T09:40:59.631Z,100891.00
2018-12-17T09:43:28.427Z,100897.00
2018-12-17T09:45:56.624Z,100895.00
2018-12-17T09:48:24.726Z,100895.00
2018-12-17T09:50:53.187Z,100898.00
2018-12-17T09:53:21.368Z,100899.00
2018-12-17T09:55:49.519Z,100897.00
2018-12-17T09:58:17.661Z,100909.00
2018-12-17T10:00:45.822Z,100905.00
2018-12-17T10:03:14.286Z,100906.00
2018-12-17T10:05:42.473Z,100916.00
2018-12-17T10:08:10.855Z,100910.00
2018-12-17T10:10:39.443Z,100898.00
2018-12-17T10:13:07.627Z,100907.00
2018-12-17T10:15:35.714Z,100902.00
2018-12-17T10:18:03.910Z,100898.00
2018-12-17T10:20:32.013Z,100892.00
2018-12-17T10:23:00.144Z,100885.00
2018-12-17T10:25:28.347Z,100862.00
2018-12-17T10:27:56.435Z,100891.00
2018-12-17T10:30:24.546Z,100885.00
2018-12-17T10:32:52.712Z,100889.00
2018-12-17T10:35:20.847Z,100887.00
2018-12-17T10:37:48.885Z,100890.00
2018-12-17T10:40:17.002Z,100895.00
2018-12-17T10:42:45.432Z,100898.00
2018-12-17T10:45:13.861Z,100895.00
2018-12-17T10:47:42.099Z,100901.00
2018-12-17T10:50:10.607Z,100905.00
2018-12-17T10:52:38.810Z,100896.00
2018-12-17T10:55:07.189Z,100908.00
2018-12-17T10:57:35.278Z,100896.00
2018-12-17T11:00:05.322Z,100886.00
2018-12-17T11:02:34.599Z,100892.00
2018-12-17T11:05:12.735Z,100893.00
2018-12-17T11:07:40.886Z,100891.00
2018-12-17T11:10:09.674Z,100893.00
2018-12-17T11:12:38.278Z,100906.00
2018-12-17T11:15:09.391Z,100813.00
2018-12-17T11:17:37.557Z,100905.00
2018-12-17T11:20:08.871Z,100905.00
2018-12-17T11:22:37.070Z,100897.00
2018-12-17T11:25:06.288Z,100906.00
2018-12-17T11:27:34.615Z,100908.00
2018-12-17T11:30:03.582Z,100905.00
2018-12-17T11:32:31.680Z,100905.00
2018-12-17T11:34:59.759Z,100914.00
2018-12-17T11:37:27.911Z,100912.00
2018-12-17T11:39:56.090Z,100908.00
2018-12-17T11:42:24.217Z,100912.00
2018-12-17T11:44:52.427Z,100915.00
2018-12-17T11:47:20.622Z,100909.00
2018-12-17T11:49:48.834Z,100903.00
2018-12-17T11:52:17.111Z,100903.00
2018-12-17T11:54:45.449Z,100903.00
2018-12-17T11:58:13.071Z,100903.00
2018-12-17T12:00:53.725Z,100894.00
2018-12-17T12:03:19.839Z,100889.00
2018-12-17T12:05:48.015Z,100903.00
2018-12-17T12:08:16.308Z,100896.00
2018-12-17T12:10:44.421Z,100909.00
2018-12-17T12:13:12.609Z,100905.00
2018-12-17T12:15:40.835Z,100912.00
2018-12-17T12:18:08.938Z,100923.00
2018-12-17T12:20:37.285Z,100912.00
2018-12-17T12:23:05.421Z,100925.00
2018-12-17T12:25:33.626Z,100939.00
2018-12-17T12:28:01.879Z,100932.00
2018-12-17T12:30:30.084Z,100927.00
2018-12-17T12:32:58.202Z,100939.00
2018-12-17T12:35:26.408Z,100933.00
2018-12-17T12:37:54.663Z,100929.00
2018-12-17T12:40:22.755Z,100930.00
2018-12-17T12:42:51.717Z,100939.00
2018-12-17T12:45:20.248Z,100943.00
2018-12-17T12:47:48.394Z,100951.00
2018-12-17T12:50:16.687Z,100938.00
2018-12-17T12:52:44.758Z,100951.00
2018-12-17T12:55:12.939Z,100949.00
2018-12-17T12:57:40.953Z,100954.00
2018-12-17T13:00:13.425Z,100954.00
2018-12-17T13:02:41.575Z,100956.00
2018-12-17T13:05:09.731Z,100959.00
2018-12-17T13:07:37.776Z,100971.00
2018-12-17T13:10:10.039Z,100973.00
2018-12-17T13:12:38.335Z,100971.00
2018-12-17T13:15:08.763Z,100972.00
2018-12-17T13:17:37.330Z,100973.00
2018-12-17T13:20:08.471Z,100984.00
2018-12-17T13:22:36.723Z,100973.00
2018-12-17T13:25:08.203Z,100982.00
2018-12-17T13:27:36.495Z,100977.00
2018-12-17T13:30:08.030Z,100983.00
2018-12-17T13:32:36.335Z,100977.00
2018-12-17T13:35:05.803Z,100985.00
2018-12-17T13:37:34.045Z,100985.00
2018-12-17T13:40:02.301Z,100985.00
2018-12-17T13:42:30.541Z,100973.00
2018-12-17T13:44:59.480Z,100981.00
2018-12-17T13:47:27.783Z,100978.00
2018-12-17T13:49:58.537Z,100982.00
2018-12-17T13:52:32.318Z,100985.00
2018-12-17T13:55:00.452Z,100985.00
2018-12-17T13:57:28.678Z,100989.00
2018-12-17T13:59:56.739Z,100990.00
2018-12-17T14:02:24.934Z,100996.00
2018-12-17T14:04:53.221Z,100990.00
2018-12-17T14:07:21.495Z,101008.00
2018-12-17T14:09:55.496Z,101017.00
2018-12-17T14:12:23.659Z,101025.00
2018-12-17T14:14:51.834Z,101030.00
2018-12-17T14:17:25.816Z,101040.00
2018-12-17T14:19:59.649Z,101042.00
2018-12-17T14:22:27.777Z,101048.00
2018-12-17T14:24:55.949Z,101050.00
2018-12-17T14:27:24.183Z,101054.00
2018-12-17T14:29:52.980Z,101053.00
2018-12-17T14:32:21.418Z,101048.00
2018-12-17T14:34:49.950Z,101057.00
2018-12-17T14:37:18.276Z,101068.00
2018-12-17T14:39:46.452Z,101065.00
2018-12-17T14:42:14.777Z,101059.00
2018-12-17T14:44:43.040Z,101071.00
2018-12-17T14:47:11.440Z,101091.00
2018-12-17T14:49:39.676Z,101084.00
2018-12-17T14:52:07.948Z,101096.00
2018-12-17T14:54:36.169Z,101102.00
2018-12-17T14:57:04.454Z,101103.00
2018-12-17T14:59:32.660Z,101087.00
2018-12-17T15:02:00.857Z,101099.00
2018-12-17T15:04:29.064Z,101113.00
2018-12-17T15:06:57.183Z,101111.00
2018-12-17T15:09:25.394Z,101111.00
2018-12-17T15:11:53.517Z,101117.00
2018-12-17T15:14:21.690Z,101130.00
2018-12-17T15:16:49.849Z,101126.00
2018-12-17T15:19:17.901Z,101125.00
2018-12-17T15:21:46.175Z,101151.00
2018-12-17T15:24:14.334Z,101125.00
2018-12-17T15:26:42.592Z,101133.00
2018-12-17T15:29:10.874Z,101124.00
2018-12-17T15:31:42.958Z,101127.00
2018-12-17T15:34:09.435Z,101123.00
2018-12-17T15:36:37.582Z,101133.00
2018-12-17T15:39:06.498Z,101139.00
2018-12-17T15:41:34.910Z,101150.00
2018-12-17T15:44:03.610Z,101147.00
2018-12-17T15:46:31.822Z,101154.00
2018-12-17T15:49:00.028Z,101166.00
2018-12-17T15:51:28.271Z,101165.00
2018-12-17T15:53:58.478Z,101175.00
2018-12-17T15:56:26.754Z,101170.00
2018-12-17T15:58:54.914Z,101171.00
2018-12-17T16:01:23.226Z,101181.00
2018-12-17T16:03:51.392Z,101185.00
2018-12-17T16:06:19.566Z,101184.00
2018-12-17T16:08:47.864Z,101181.00
2018-12-17T16:11:16.183Z,101181.00
2018-12-17T16:13:44.373Z,101187.00
2018-12-17T16:16:12.576Z,101189.00
2018-12-17T16:18:42.069Z,101192.00
2018-12-17T16:21:10.384Z,101182.00
2018-12-17T16:23:38.541Z,101185.00
2018-12-17T16:26:06.806Z,101184.00
2018-12-17T16:28:34.914Z,101195.00
2018-12-17T16:31:03.130Z,101200.00
2018-12-17T16:33:31.385Z,101203.00
2018-12-17T16:35:59.592Z,101212.00
2018-12-17T16:38:27.788Z,101207.00
2018-12-17T16:40:55.948Z,101213.00
2018-12-17T16:43:24.068Z,101216.00
2018-12-17T16:45:52.262Z,101221.00
2018-12-17T16:48:20.486Z,101226.00
2018-12-17T16:50:48.711Z,101223.00
2018-12-17T16:53:16.956Z,101227.00
2018-12-17T16:55:45.118Z,101230.00
2018-12-17T16:58:13.379Z,101229.00
2018-12-17T17:00:41.805Z,101242.00
2018-12-17T17:03:10.126Z,101238.00
2018-12-17T17:05:38.393Z,101281.00
2018-12-17T17:08:06.506Z,101240.00
2018-12-17T17:10:34.764Z,101244.00
2018-12-17T17:13:03.321Z,101283.00
2018-12-17T17:15:31.680Z,101252.00
2018-12-17T17:18:00.019Z,101263.00
2018-12-17T17:20:28.264Z,101260.00
2018-12-17T17:22:56.516Z,101258.00
2018-12-17T17:25:24.896Z,101263.00
2018-12-17T17:27:53.133Z,101267.00
2018-12-17T17:30:21.460Z,101272.00
2018-12-17T17:32:49.678Z,101279.00
2018-12-17T17:35:17.954Z,101281.00
2018-12-17T17:37:46.176Z,101281.00
2018-12-17T17:40:14.491Z,101287.00
2018-12-17T17:42:42.678Z,101290.00
2018-12-17T17:45:10.871Z,101282.00
2018-12-17T17:47:39.219Z,101281.00
2018-12-17T17:50:07.765Z,101278.00
2018-12-17T17:52:36.069Z,101284.00
2018-12-17T17:55:04.675Z,101294.00
2018-12-17T17:57:32.941Z,101289.00
2018-12-17T18:00:01.327Z,101288.00
2018-12-17T18:02:29.668Z,101291.00
2018-12-17T18:04:58.082Z,101281.00
2018-12-17T18:07:26.610Z,101297.00
2018-12-17T18:09:55.796Z,101294.00
2018-12-17T18:12:24.194Z,101290.00
2018-12-17T18:14:52.571Z,101301.00
2018-12-17T18:17:21.041Z,101290.00
2018-12-17T18:19:49.867Z,101304.00
2018-12-17T18:22:18.402Z,101306.00
2018-12-17T18:24:47.061Z,101295.00
2018-12-17T18:27:15.454Z,101311.00
2018-12-17T18:29:43.634Z,101313.00
2018-12-17T18:32:12.028Z,101304.00
2018-12-17T18:34:40.197Z,101309.00
2018-12-17T18:37:08.477Z,101314.00
2018-12-17T18:39:36.847Z,101319.00
2018-12-17T18:42:05.242Z,101327.00
2018-12-17T18:44:33.822Z,101320.00
2018-12-17T18:47:02.153Z,101327.00
2018-12-17T18:49:30.512Z,101328.00
2018-12-17T18:51:58.791Z,101332.00
2018-12-17T18:54:27.218Z,101338.00
2018-12-17T18:56:55.489Z,101337.00
2018-12-17T18:59:23.872Z,101338.00
2018-12-17T19:01:52.285Z,101344.00
2018-12-17T19:04:21.023Z,101348.00
2018-12-17T19:06:49.363Z,101343.00
2018-12-17T19:09:17.788Z,101349.00
2018-12-17T19:11:46.034Z,101344.00
2018-12-17T19:14:14.451Z,101362.00
2018-12-17T19:16:42.789Z,101367.00
2018-12-17T19:19:11.000Z,101371.00
2018-12-17T19:21:40.552Z,101373.00
2018-12-17T19:24:08.942Z,101379.00
2018-12-17T19:26:37.779Z,101374.00
2018-12-17T19:29:06.220Z,101369.00
2018-12-17T19:31:34.945Z,101379.00
2018-12-17T19:34:03.381Z,101378.00
2018-12-17T19:36:31.770Z,101385.00
2018-12-17T19:39:00.342Z,101390.00
2018-12-17T19:41:28.815Z,101398.00
2018-12-17T19:43:57.042Z,101379.00
2018-12-17T19:46:25.372Z,101386.00
2018-12-17T19:48:53.783Z,101385.00
2018-12-17T19:51:22.237Z,101383.00
2018-12-17T19:53:50.693Z,101389.00
2018-12-17T19:56:19.161Z,101408.00
2018-12-17T19:58:47.585Z,101402.00
2018-12-17T20:01:15.962Z,101404.00
2018-12-17T20:03:44.555Z,101348.00
2018-12-17T20:06:12.891Z,101405.00
2018-12-17T20:08:41.281Z,101400.00
2018-12-17T20:11:09.626Z,101418.00
2018-12-17T20:13:37.965Z,101413.00
2018-12-17T20:16:06.412Z,101416.00
2018-12-17T20:18:34.690Z,101424.00
2018-12-17T20:21:03.416Z,101434.00
2018-12-17T20:23:32.036Z,101439.00
2018-12-17T20:26:00.669Z,101430.00
2018-12-17T20:28:29.606Z,101429.00
2018-12-17T20:30:58.162Z,101438.00
2018-12-17T20:33:26.635Z,101443.00
2018-12-17T20:35:54.993Z,101435.00
2018-12-17T20:38:23.262Z,101436.00
2018-12-17T20:40:52.312Z,101434.00
2018-12-17T20:43:20.809Z,101445.00
2018-12-17T20:45:49.406Z,101445.00
2018-12-17T20:48:17.800Z,101445.00
2018-12-17T20:50:47.113Z,101450.00
2018-12-17T20:53:15.498Z,101448.00
2018-12-17T20:55:44.170Z,101443.00
2018-12-17T20:58:12.795Z,101456.00
2018-12-17T21:00:41.109Z,101458.00
2018-12-17T21:03:09.721Z,101461.00
2018-12-17T21:05:38.022Z,101447.00
2018-12-17T21:08:08.266Z,101455.00
2018-12-17T21:10:36.799Z,101453.00
2018-12-17T21:13:05.192Z,101455.00
2018-12-17T21:15:38.785Z,101456.00
2018-12-17T21:18:07.364Z,101452.00
2018-12-17T21:20:35.748Z,101458.00
2018-12-17T21:25:52.491Z,101458.00
2018-12-17T21:28:20.747Z,101458.00
2018-12-17T21:30:49.464Z,101458.00
2018-12-17T21:33:18.080Z,101455.00
2018-12-17T21:35:46.668Z,101467.00
2018-12-17T21:38:15.289Z,101464.00
2018-12-17T21:40:43.964Z,101465.00
2018-12-17T21:43:12.835Z,101473.00
2018-12-17T21:45:41.605Z,101471.00
2018-12-17T21:48:10.346Z,101479.00
2018-12-17T21:50:38.752Z,101479.00
2018-12-17T21:53:07.599Z,101481.00
2018-12-17T21:55:36.068Z,101491.00
2018-12-17T21:58:04.644Z,101490.00
2018-12-17T22:00:33.262Z,101491.00
2018-12-17T22:03:02.085Z,101488.00
2018-12-17T22:05:30.771Z,101493.00
2018-12-17T22:07:59.165Z,101499.00
2018-12-17T22:10:32.456Z,101501.00
2018-12-17T22:13:00.834Z,101509.00
2018-12-17T22:15:29.146Z,101508.00
2018-12-17T22:17:57.875Z,101502.00
2018-12-17T22:20:26.124Z,101507.00
2018-12-17T22:22:54.659Z,101502.00
2018-12-17T22:25:22.859Z,101502.00
2018-12-17T22:27:51.103Z,101505.00
2018-12-17T22:30:19.349Z,101515.00
2018-12-17T22:32:47.688Z,101523.00
2018-12-17T22:35:16.079Z,101520.00
2018-12-17T22:37:44.359Z,101515.00
2018-12-17T22:40:12.688Z,101529.00
2018-12-17T22:42:40.864Z,101521.00
2018-12-17T22:45:09.188Z,101526.00
2018-12-17T22:47:37.471Z,101526.00
2018-12-17T22:50:06.757Z,101532.00
2018-12-17T22:52:34.965Z,101532.00
2018-12-17T22:55:03.448Z,101527.00
2018-12-17T22:57:31.738Z,101533.00
2018-12-17T23:00:00.092Z,101529.00
2018-12-17T23:02:28.492Z,101531.00
2018-12-17T23:04:56.654Z,101520.00
2018-12-17T23:07:25.852Z,101525.00
2018-12-17T23:10:11.121Z,101531.00
2018-12-17T23:12:56.454Z,101529.00
2018-12-17T23:15:41.781Z,101529.00
2018-12-17T23:18:08.413Z,101538.00
2018-12-17T23:20:36.807Z,101529.00
2018-12-17T23:23:05.029Z,101537.00
2018-12-17T23:25:33.684Z,101547.00
2018-12-17T23:28:02.094Z,101535.00
2018-12-17T23:30:30.338Z,101532.00
2018-12-17T23:32:59.264Z,101536.00
2018-12-17T23:35:27.686Z,101544.00
2018-12-17T23:37:55.853Z,101542.00
2018-12-17T23:40:24.057Z,101534.00
2018-12-17T23:42:52.206Z,101536.00
2018-12-17T23:45:20.628Z,101529.00
2018-12-17T23:47:48.977Z,101524.00
2018-12-17T23:50:17.855Z,101519.00
2018-12-17T23:52:45.994Z,101518.00
2018-12-17T23:55:14.119Z,101513.00
2018-12-17T23:57:42.295Z,101520.00
